sensor_id;sensor_type;location;lat;lon;timestamp;P1;durP1;ratioP1;P2;durP2;ratioP2
28724;SDS011;43472;48.980;9.646;2023-05-07T00:01:01;8.48;;;3.35;;
28724;SDS011;43472;48.980;9.646;2023-05-07T00:06:03;11.02;;;4.47;;
28724;SDS011;43472;48.980;9.646;2023-05-07T00:11:07;13.82;;;6.05;;
28724;SDS011;43472;48.980;9.646;2023-05-07T00:16:08;11.38;;;4.30;;
28724;SDS011;43472;48.980;9.646;2023-05-07T00:21:10;10.63;;;4.22;;
28724;SDS011;43472;48.980;9.646;2023-05-07T00:26:12;5.80;;;3.55;;
28724;SDS011;43472;48.980;9.646;2023-05-07T00:31:29;6.20;;;3.40;;
28724;SDS011;43472;48.980;9.646;2023-05-07T00:36:31;7.05;;;3.50;;
28724;SDS011;43472;48.980;9.646;2023-05-07T00:41:33;6.25;;;3.03;;
28724;SDS011;43472;48.980;9.646;2023-05-07T00:46:50;8.98;;;4.63;;
28724;SDS011;43472;48.980;9.646;2023-05-07T00:52:07;6.38;;;3.97;;
28724;SDS011;43472;48.980;9.646;2023-05-07T00:57:10;5.63;;;3.10;;
28724;SDS011;43472;48.980;9.646;2023-05-07T01:02:27;6.25;;;2.78;;
28724;SDS011;43472;48.980;9.646;2023-05-07T01:07:33;5.72;;;3.08;;
28724;SDS011;43472;48.980;9.646;2023-05-07T01:12:37;5.63;;;3.15;;
28724;SDS011;43472;48.980;9.646;2023-05-07T01:17:41;7.47;;;3.65;;
28724;SDS011;43472;48.980;9.646;2023-05-07T01:22:44;8.38;;;3.42;;
28724;SDS011;43472;48.980;9.646;2023-05-07T01:27:46;5.22;;;3.50;;
28724;SDS011;43472;48.980;9.646;2023-05-07T01:38:01;7.80;;;4.60;;
28724;SDS011;43472;48.980;9.646;2023-05-07T01:43:05;8.93;;;3.60;;
28724;SDS011;43472;48.980;9.646;2023-05-07T01:48:09;9.80;;;4.63;;
28724;SDS011;43472;48.980;9.646;2023-05-07T01:53:19;6.95;;;3.75;;
28724;SDS011;43472;48.980;9.646;2023-05-07T01:58:21;4.80;;;3.40;;
28724;SDS011;43472;48.980;9.646;2023-05-07T02:03:38;7.15;;;3.20;;
28724;SDS011;43472;48.980;9.646;2023-05-07T02:08:41;7.90;;;3.65;;
28724;SDS011;43472;48.980;9.646;2023-05-07T02:13:43;8.02;;;4.10;;
28724;SDS011;43472;48.980;9.646;2023-05-07T02:18:45;8.02;;;3.30;;
28724;SDS011;43472;48.980;9.646;2023-05-07T02:24:01;10.65;;;3.47;;
28724;SDS011;43472;48.980;9.646;2023-05-07T02:29:03;8.82;;;3.45;;
28724;SDS011;43472;48.980;9.646;2023-05-07T02:34:20;7.70;;;2.88;;
28724;SDS011;43472;48.980;9.646;2023-05-07T02:39:25;7.25;;;2.78;;
28724;SDS011;43472;48.980;9.646;2023-05-07T02:44:27;4.40;;;3.00;;
28724;SDS011;43472;48.980;9.646;2023-05-07T02:49:32;10.50;;;3.75;;
28724;SDS011;43472;48.980;9.646;2023-05-07T02:54:34;12.15;;;3.50;;
28724;SDS011;43472;48.980;9.646;2023-05-07T02:59:36;8.98;;;3.95;;
28724;SDS011;43472;48.980;9.646;2023-05-07T03:04:39;8.18;;;4.05;;
28724;SDS011;43472;48.980;9.646;2023-05-07T03:09:42;9.80;;;3.63;;
28724;SDS011;43472;48.980;9.646;2023-05-07T03:14:44;11.43;;;3.88;;
28724;SDS011;43472;48.980;9.646;2023-05-07T03:19:48;5.28;;;2.92;;
28724;SDS011;43472;48.980;9.646;2023-05-07T03:24:50;6.72;;;2.67;;
28724;SDS011;43472;48.980;9.646;2023-05-07T03:29:52;3.53;;;2.80;;
28724;SDS011;43472;48.980;9.646;2023-05-07T03:34:54;4.45;;;3.10;;
28724;SDS011;43472;48.980;9.646;2023-05-07T03:40:11;9.70;;;3.88;;
28724;SDS011;43472;48.980;9.646;2023-05-07T03:45:14;11.25;;;3.78;;
28724;SDS011;43472;48.980;9.646;2023-05-07T03:50:16;4.97;;;2.83;;
28724;SDS011;43472;48.980;9.646;2023-05-07T03:55:32;6.68;;;3.53;;
28724;SDS011;43472;48.980;9.646;2023-05-07T04:00:49;7.32;;;4.03;;
28724;SDS011;43472;48.980;9.646;2023-05-07T04:05:51;8.50;;;3.25;;
28724;SDS011;43472;48.980;9.646;2023-05-07T04:10:56;5.63;;;3.40;;
28724;SDS011;43472;48.980;9.646;2023-05-07T04:15:58;4.55;;;3.33;;
28724;SDS011;43472;48.980;9.646;2023-05-07T04:21:05;5.40;;;3.05;;
28724;SDS011;43472;48.980;9.646;2023-05-07T04:26:07;12.07;;;4.05;;
28724;SDS011;43472;48.980;9.646;2023-05-07T04:31:24;6.50;;;3.65;;
28724;SDS011;43472;48.980;9.646;2023-05-07T04:36:26;13.18;;;4.95;;
28724;SDS011;43472;48.980;9.646;2023-05-07T04:41:43;10.55;;;5.57;;
28724;SDS011;43472;48.980;9.646;2023-05-07T04:46:46;10.35;;;5.25;;
28724;SDS011;43472;48.980;9.646;2023-05-07T04:51:48;9.35;;;4.80;;
28724;SDS011;43472;48.980;9.646;2023-05-07T04:56:50;8.75;;;5.75;;
28724;SDS011;43472;48.980;9.646;2023-05-07T05:02:09;10.75;;;5.65;;
28724;SDS011;43472;48.980;9.646;2023-05-07T05:07:21;10.18;;;5.78;;
28724;SDS011;43472;48.980;9.646;2023-05-07T05:12:23;21.33;;;6.38;;
28724;SDS011;43472;48.980;9.646;2023-05-07T05:17:24;7.60;;;4.93;;
28724;SDS011;43472;48.980;9.646;2023-05-07T05:22:26;5.47;;;4.20;;
28724;SDS011;43472;48.980;9.646;2023-05-07T05:27:30;6.53;;;3.40;;
28724;SDS011;43472;48.980;9.646;2023-05-07T05:32:32;4.65;;;3.28;;
28724;SDS011;43472;48.980;9.646;2023-05-07T05:37:35;6.63;;;3.45;;
28724;SDS011;43472;48.980;9.646;2023-05-07T05:42:37;4.97;;;3.70;;
28724;SDS011;43472;48.980;9.646;2023-05-07T05:47:39;5.32;;;3.35;;
28724;SDS011;43472;48.980;9.646;2023-05-07T05:52:57;7.80;;;3.70;;
28724;SDS011;43472;48.980;9.646;2023-05-07T05:58:00;18.40;;;8.15;;
28724;SDS011;43472;48.980;9.646;2023-05-07T06:03:17;10.73;;;7.00;;
28724;SDS011;43472;48.980;9.646;2023-05-07T06:08:19;8.70;;;4.75;;
28724;SDS011;43472;48.980;9.646;2023-05-07T06:13:21;7.22;;;3.95;;
28724;SDS011;43472;48.980;9.646;2023-05-07T06:18:23;8.00;;;3.50;;
28724;SDS011;43472;48.980;9.646;2023-05-07T06:23:26;10.50;;;4.15;;
28724;SDS011;43472;48.980;9.646;2023-05-07T06:28:29;7.60;;;3.03;;
28724;SDS011;43472;48.980;9.646;2023-05-07T06:33:36;6.50;;;3.70;;
28724;SDS011;43472;48.980;9.646;2023-05-07T06:38:46;8.15;;;5.40;;
28724;SDS011;43472;48.980;9.646;2023-05-07T06:44:06;4.88;;;3.10;;
28724;SDS011;43472;48.980;9.646;2023-05-07T06:49:10;6.68;;;2.50;;
28724;SDS011;43472;48.980;9.646;2023-05-07T06:54:27;4.82;;;2.70;;
28724;SDS011;43472;48.980;9.646;2023-05-07T06:59:30;2.45;;;2.10;;
28724;SDS011;43472;48.980;9.646;2023-05-07T07:04:32;2.50;;;2.00;;
28724;SDS011;43472;48.980;9.646;2023-05-07T07:09:33;4.00;;;1.67;;
28724;SDS011;43472;48.980;9.646;2023-05-07T07:14:35;2.85;;;1.63;;
28724;SDS011;43472;48.980;9.646;2023-05-07T07:19:52;2.55;;;1.95;;
28724;SDS011;43472;48.980;9.646;2023-05-07T07:24:54;4.35;;;2.08;;
28724;SDS011;43472;48.980;9.646;2023-05-07T07:30:06;4.03;;;2.15;;
28724;SDS011;43472;48.980;9.646;2023-05-07T07:35:09;2.50;;;1.73;;
28724;SDS011;43472;48.980;9.646;2023-05-07T07:40:14;2.88;;;1.40;;
28724;SDS011;43472;48.980;9.646;2023-05-07T07:45:16;2.85;;;1.55;;
28724;SDS011;43472;48.980;9.646;2023-05-07T07:50:20;2.40;;;1.63;;
28724;SDS011;43472;48.980;9.646;2023-05-07T07:55:32;1.50;;;1.40;;
28724;SDS011;43472;48.980;9.646;2023-05-07T08:00:39;2.75;;;1.50;;
28724;SDS011;43472;48.980;9.646;2023-05-07T08:05:57;1.90;;;1.30;;
28724;SDS011;43472;48.980;9.646;2023-05-07T08:11:03;3.80;;;1.40;;
28724;SDS011;43472;48.980;9.646;2023-05-07T08:16:06;1.38;;;1.10;;
28724;SDS011;43472;48.980;9.646;2023-05-07T08:21:24;2.50;;;1.50;;
28724;SDS011;43472;48.980;9.646;2023-05-07T08:26:27;3.55;;;1.45;;
28724;SDS011;43472;48.980;9.646;2023-05-07T08:31:29;5.93;;;1.35;;
28724;SDS011;43472;48.980;9.646;2023-05-07T08:36:30;5.18;;;1.40;;
28724;SDS011;43472;48.980;9.646;2023-05-07T08:41:33;1.90;;;1.27;;
28724;SDS011;43472;48.980;9.646;2023-05-07T08:46:51;3.60;;;2.50;;
28724;SDS011;43472;48.980;9.646;2023-05-07T08:52:11;2.35;;;1.20;;
28724;SDS011;43472;48.980;9.646;2023-05-07T08:57:21;5.38;;;1.15;;
28724;SDS011;43472;48.980;9.646;2023-05-07T09:02:26;2.47;;;1.58;;
28724;SDS011;43472;48.980;9.646;2023-05-07T09:07:37;1.73;;;1.17;;
28724;SDS011;43472;48.980;9.646;2023-05-07T09:12:39;2.05;;;1.42;;
28724;SDS011;43472;48.980;9.646;2023-05-07T09:17:41;4.78;;;1.35;;
28724;SDS011;43472;48.980;9.646;2023-05-07T09:22:44;1.67;;;0.95;;
28724;SDS011;43472;48.980;9.646;2023-05-07T09:27:46;1.13;;;1.00;;
28724;SDS011;43472;48.980;9.646;2023-05-07T09:33:04;3.78;;;1.30;;
28724;SDS011;43472;48.980;9.646;2023-05-07T09:38:06;1.67;;;0.90;;
28724;SDS011;43472;48.980;9.646;2023-05-07T09:43:15;1.60;;;1.10;;
28724;SDS011;43472;48.980;9.646;2023-05-07T09:48:17;3.30;;;0.88;;
28724;SDS011;43472;48.980;9.646;2023-05-07T09:53:20;2.63;;;1.20;;
28724;SDS011;43472;48.980;9.646;2023-05-07T09:58:23;4.95;;;1.23;;
28724;SDS011;43472;48.980;9.646;2023-05-07T10:03:34;2.50;;;1.30;;
28724;SDS011;43472;48.980;9.646;2023-05-07T10:08:37;3.17;;;1.05;;
28724;SDS011;43472;48.980;9.646;2023-05-07T10:13:40;1.88;;;0.90;;
28724;SDS011;43472;48.980;9.646;2023-05-07T10:18:43;1.15;;;0.90;;
28724;SDS011;43472;48.980;9.646;2023-05-07T10:23:55;3.13;;;1.25;;
28724;SDS011;43472;48.980;9.646;2023-05-07T10:29:00;1.45;;;0.73;;
28724;SDS011;43472;48.980;9.646;2023-05-07T10:34:07;1.92;;;1.17;;
28724;SDS011;43472;48.980;9.646;2023-05-07T10:39:22;7.75;;;4.95;;
28724;SDS011;43472;48.980;9.646;2023-05-07T10:44:28;3.08;;;1.05;;
28724;SDS011;43472;48.980;9.646;2023-05-07T10:49:30;2.22;;;0.90;;
28724;SDS011;43472;48.980;9.646;2023-05-07T10:54:32;2.67;;;1.30;;
28724;SDS011;43472;48.980;9.646;2023-05-07T10:59:38;4.45;;;1.52;;
28724;SDS011;43472;48.980;9.646;2023-05-07T11:04:44;2.63;;;1.00;;
28724;SDS011;43472;48.980;9.646;2023-05-07T11:14:54;4.10;;;1.05;;
28724;SDS011;43472;48.980;9.646;2023-05-07T11:19:57;1.48;;;0.90;;
28724;SDS011;43472;48.980;9.646;2023-05-07T11:25:17;2.92;;;0.95;;
28724;SDS011;43472;48.980;9.646;2023-05-07T11:30:22;2.33;;;1.20;;
28724;SDS011;43472;48.980;9.646;2023-05-07T11:35:25;2.42;;;0.93;;
28724;SDS011;43472;48.980;9.646;2023-05-07T11:40:27;1.55;;;0.70;;
28724;SDS011;43472;48.980;9.646;2023-05-07T11:45:29;3.30;;;1.10;;
28724;SDS011;43472;48.980;9.646;2023-05-07T11:50:31;2.15;;;0.80;;
28724;SDS011;43472;48.980;9.646;2023-05-07T11:55:33;2.65;;;1.10;;
28724;SDS011;43472;48.980;9.646;2023-05-07T12:00:35;1.00;;;0.90;;
28724;SDS011;43472;48.980;9.646;2023-05-07T12:05:37;0.90;;;0.70;;
28724;SDS011;43472;48.980;9.646;2023-05-07T12:10:54;1.95;;;1.00;;
28724;SDS011;43472;48.980;9.646;2023-05-07T12:15:56;7.55;;;0.95;;
28724;SDS011;43472;48.980;9.646;2023-05-07T12:21:06;1.30;;;0.80;;
28724;SDS011;43472;48.980;9.646;2023-05-07T12:26:24;2.88;;;0.93;;
28724;SDS011;43472;48.980;9.646;2023-05-07T12:31:29;3.40;;;0.93;;
28724;SDS011;43472;48.980;9.646;2023-05-07T12:36:38;1.73;;;0.93;;
28724;SDS011;43472;48.980;9.646;2023-05-07T12:46:56;2.38;;;1.42;;
28724;SDS011;43472;48.980;9.646;2023-05-07T12:52:14;2.13;;;0.80;;
28724;SDS011;43472;48.980;9.646;2023-05-07T12:57:16;2.25;;;1.30;;
28724;SDS011;43472;48.980;9.646;2023-05-07T13:02:34;4.63;;;1.00;;
28724;SDS011;43472;48.980;9.646;2023-05-07T13:07:39;4.28;;;0.98;;
28724;SDS011;43472;48.980;9.646;2023-05-07T13:12:42;1.70;;;1.48;;
28724;SDS011;43472;48.980;9.646;2023-05-07T13:17:44;0.98;;;0.88;;
28724;SDS011;43472;48.980;9.646;2023-05-07T13:23:02;1.48;;;1.08;;
28724;SDS011;43472;48.980;9.646;2023-05-07T13:28:07;2.15;;;1.00;;
28724;SDS011;43472;48.980;9.646;2023-05-07T13:33:11;5.07;;;1.20;;
28724;SDS011;43472;48.980;9.646;2023-05-07T13:38:18;4.18;;;1.20;;
28724;SDS011;43472;48.980;9.646;2023-05-07T13:43:19;5.30;;;2.33;;
28724;SDS011;43472;48.980;9.646;2023-05-07T13:48:21;5.60;;;1.60;;
28724;SDS011;43472;48.980;9.646;2023-05-07T13:53:23;4.63;;;1.70;;
28724;SDS011;43472;48.980;9.646;2023-05-07T13:58:25;6.80;;;1.83;;
28724;SDS011;43472;48.980;9.646;2023-05-07T14:03:27;10.93;;;3.30;;
28724;SDS011;43472;48.980;9.646;2023-05-07T14:08:29;3.97;;;2.08;;
28724;SDS011;43472;48.980;9.646;2023-05-07T14:13:32;5.90;;;2.67;;
28724;SDS011;43472;48.980;9.646;2023-05-07T14:18:35;4.75;;;2.70;;
28724;SDS011;43472;48.980;9.646;2023-05-07T14:23:38;8.35;;;4.40;;
28724;SDS011;43472;48.980;9.646;2023-05-07T14:28:40;4.78;;;2.05;;
28724;SDS011;43472;48.980;9.646;2023-05-07T14:34:00;2.72;;;1.70;;
28724;SDS011;43472;48.980;9.646;2023-05-07T14:39:02;2.97;;;1.65;;
28724;SDS011;43472;48.980;9.646;2023-05-07T14:44:04;6.82;;;3.30;;
28724;SDS011;43472;48.980;9.646;2023-05-07T14:49:05;5.07;;;1.67;;
28724;SDS011;43472;48.980;9.646;2023-05-07T14:54:07;7.03;;;2.20;;
28724;SDS011;43472;48.980;9.646;2023-05-07T14:59:09;4.35;;;2.28;;
28724;SDS011;43472;48.980;9.646;2023-05-07T15:04:12;11.40;;;5.85;;
28724;SDS011;43472;48.980;9.646;2023-05-07T15:09:14;8.75;;;2.30;;
28724;SDS011;43472;48.980;9.646;2023-05-07T15:14:16;2.78;;;2.13;;
28724;SDS011;43472;48.980;9.646;2023-05-07T15:19:26;5.43;;;2.20;;
28724;SDS011;43472;48.980;9.646;2023-05-07T15:24:30;2.10;;;1.75;;
28724;SDS011;43472;48.980;9.646;2023-05-07T15:29:47;4.28;;;2.30;;
28724;SDS011;43472;48.980;9.646;2023-05-07T15:34:56;6.40;;;2.30;;
28724;SDS011;43472;48.980;9.646;2023-05-07T15:39:58;3.95;;;2.22;;
28724;SDS011;43472;48.980;9.646;2023-05-07T15:45:00;4.82;;;1.98;;
28724;SDS011;43472;48.980;9.646;2023-05-07T15:50:05;2.30;;;1.33;;
28724;SDS011;43472;48.980;9.646;2023-05-07T15:55:08;2.20;;;1.30;;
28724;SDS011;43472;48.980;9.646;2023-05-07T16:00:11;4.20;;;2.30;;
28724;SDS011;43472;48.980;9.646;2023-05-07T16:05:14;4.55;;;1.60;;
28724;SDS011;43472;48.980;9.646;2023-05-07T16:10:16;5.68;;;1.38;;
28724;SDS011;43472;48.980;9.646;2023-05-07T16:15:19;4.05;;;1.80;;
28724;SDS011;43472;48.980;9.646;2023-05-07T16:20:21;6.07;;;1.30;;
28724;SDS011;43472;48.980;9.646;2023-05-07T16:25:38;2.38;;;1.70;;
28724;SDS011;43472;48.980;9.646;2023-05-07T16:30:41;6.00;;;1.88;;
28724;SDS011;43472;48.980;9.646;2023-05-07T16:35:45;4.53;;;2.13;;
28724;SDS011;43472;48.980;9.646;2023-05-07T16:40:55;3.17;;;2.00;;
28724;SDS011;43472;48.980;9.646;2023-05-07T16:45:57;2.08;;;1.75;;
28724;SDS011;43472;48.980;9.646;2023-05-07T16:50:59;3.38;;;1.92;;
28724;SDS011;43472;48.980;9.646;2023-05-07T16:56:08;16.50;;;7.82;;
28724;SDS011;43472;48.980;9.646;2023-05-07T17:01:10;3.65;;;2.28;;
28724;SDS011;43472;48.980;9.646;2023-05-07T17:06:12;4.75;;;1.98;;
28724;SDS011;43472;48.980;9.646;2023-05-07T17:11:15;6.60;;;2.20;;
28724;SDS011;43472;48.980;9.646;2023-05-07T17:16:17;2.75;;;1.77;;
28724;SDS011;43472;48.980;9.646;2023-05-07T17:21:19;2.80;;;2.20;;
28724;SDS011;43472;48.980;9.646;2023-05-07T17:26:21;4.45;;;3.35;;
28724;SDS011;43472;48.980;9.646;2023-05-07T17:31:22;13.52;;;5.80;;
28724;SDS011;43472;48.980;9.646;2023-05-07T17:36:25;4.25;;;3.40;;
28724;SDS011;43472;48.980;9.646;2023-05-07T17:41:27;6.22;;;3.17;;
28724;SDS011;43472;48.980;9.646;2023-05-07T17:46:29;5.30;;;3.08;;
28724;SDS011;43472;48.980;9.646;2023-05-07T17:51:31;5.53;;;2.97;;
28724;SDS011;43472;48.980;9.646;2023-05-07T17:56:50;5.38;;;2.60;;
28724;SDS011;43472;48.980;9.646;2023-05-07T18:01:52;4.05;;;2.33;;
28724;SDS011;43472;48.980;9.646;2023-05-07T18:06:54;6.63;;;3.20;;
28724;SDS011;43472;48.980;9.646;2023-05-07T18:12:11;4.57;;;3.60;;
28724;SDS011;43472;48.980;9.646;2023-05-07T18:17:13;5.60;;;3.55;;
28724;SDS011;43472;48.980;9.646;2023-05-07T18:22:30;6.95;;;4.38;;
28724;SDS011;43472;48.980;9.646;2023-05-07T18:27:32;4.25;;;3.45;;
28724;SDS011;43472;48.980;9.646;2023-05-07T18:32:35;8.07;;;4.00;;
28724;SDS011;43472;48.980;9.646;2023-05-07T18:37:37;6.50;;;3.25;;
28724;SDS011;43472;48.980;9.646;2023-05-07T18:42:55;3.65;;;2.72;;
28724;SDS011;43472;48.980;9.646;2023-05-07T18:47:56;4.63;;;3.00;;
28724;SDS011;43472;48.980;9.646;2023-05-07T18:53:14;5.68;;;3.65;;
28724;SDS011;43472;48.980;9.646;2023-05-07T18:58:16;10.70;;;4.70;;
28724;SDS011;43472;48.980;9.646;2023-05-07T19:03:23;6.38;;;3.05;;
28724;SDS011;43472;48.980;9.646;2023-05-07T19:08:24;3.30;;;2.03;;
28724;SDS011;43472;48.980;9.646;2023-05-07T19:13:26;3.60;;;2.60;;
28724;SDS011;43472;48.980;9.646;2023-05-07T19:18:28;5.25;;;2.30;;
28724;SDS011;43472;48.980;9.646;2023-05-07T19:23:45;4.35;;;2.55;;
28724;SDS011;43472;48.980;9.646;2023-05-07T19:28:48;4.78;;;2.50;;
28724;SDS011;43472;48.980;9.646;2023-05-07T19:34:18;8.30;;;3.28;;
28724;SDS011;43472;48.980;9.646;2023-05-07T19:39:20;4.90;;;3.08;;
28724;SDS011;43472;48.980;9.646;2023-05-07T19:44:27;6.88;;;2.53;;
28724;SDS011;43472;48.980;9.646;2023-05-07T19:49:32;5.30;;;3.03;;
28724;SDS011;43472;48.980;9.646;2023-05-07T19:54:34;4.38;;;2.83;;
28724;SDS011;43472;48.980;9.646;2023-05-07T19:59:36;3.72;;;2.92;;
28724;SDS011;43472;48.980;9.646;2023-05-07T20:04:38;8.23;;;3.88;;
28724;SDS011;43472;48.980;9.646;2023-05-07T20:09:40;4.78;;;3.13;;
28724;SDS011;43472;48.980;9.646;2023-05-07T20:14:42;6.15;;;3.50;;
28724;SDS011;43472;48.980;9.646;2023-05-07T20:19:44;5.78;;;3.70;;
28724;SDS011;43472;48.980;9.646;2023-05-07T20:25:02;9.73;;;3.38;;
28724;SDS011;43472;48.980;9.646;2023-05-07T20:30:06;5.28;;;3.10;;
28724;SDS011;43472;48.980;9.646;2023-05-07T20:35:08;7.88;;;3.55;;
28724;SDS011;43472;48.980;9.646;2023-05-07T20:40:13;7.95;;;3.42;;
28724;SDS011;43472;48.980;9.646;2023-05-07T20:45:15;14.18;;;8.38;;
28724;SDS011;43472;48.980;9.646;2023-05-07T20:50:17;6.55;;;3.47;;
28724;SDS011;43472;48.980;9.646;2023-05-07T20:55:19;6.47;;;3.25;;
28724;SDS011;43472;48.980;9.646;2023-05-07T21:00:36;7.93;;;3.08;;
28724;SDS011;43472;48.980;9.646;2023-05-07T21:05:39;7.80;;;3.83;;
28724;SDS011;43472;48.980;9.646;2023-05-07T21:10:53;7.38;;;3.08;;
28724;SDS011;43472;48.980;9.646;2023-05-07T21:15:56;5.75;;;3.10;;
28724;SDS011;43472;48.980;9.646;2023-05-07T21:20:57;6.80;;;3.72;;
28724;SDS011;43472;48.980;9.646;2023-05-07T21:25:59;8.00;;;3.45;;
28724;SDS011;43472;48.980;9.646;2023-05-07T21:31:01;6.20;;;4.35;;
28724;SDS011;43472;48.980;9.646;2023-05-07T21:36:03;8.40;;;4.25;;
28724;SDS011;43472;48.980;9.646;2023-05-07T21:41:07;4.43;;;3.80;;
28724;SDS011;43472;48.980;9.646;2023-05-07T21:46:09;6.93;;;3.33;;
28724;SDS011;43472;48.980;9.646;2023-05-07T21:51:26;4.30;;;3.28;;
28724;SDS011;43472;48.980;9.646;2023-05-07T21:56:28;4.80;;;3.30;;
28724;SDS011;43472;48.980;9.646;2023-05-07T22:01:45;4.03;;;3.20;;
28724;SDS011;43472;48.980;9.646;2023-05-07T22:06:47;8.02;;;3.20;;
28724;SDS011;43472;48.980;9.646;2023-05-07T22:11:49;7.55;;;3.58;;
28724;SDS011;43472;48.980;9.646;2023-05-07T22:16:51;8.05;;;4.32;;
28724;SDS011;43472;48.980;9.646;2023-05-07T22:21:53;7.80;;;4.70;;
28724;SDS011;43472;48.980;9.646;2023-05-07T22:27:10;6.80;;;4.28;;
28724;SDS011;43472;48.980;9.646;2023-05-07T22:32:12;6.25;;;4.40;;
28724;SDS011;43472;48.980;9.646;2023-05-07T22:37:18;6.32;;;4.80;;
28724;SDS011;43472;48.980;9.646;2023-05-07T22:42:20;8.23;;;4.88;;
28724;SDS011;43472;48.980;9.646;2023-05-07T22:47:22;4.40;;;3.40;;
28724;SDS011;43472;48.980;9.646;2023-05-07T22:52:24;4.15;;;3.75;;
28724;SDS011;43472;48.980;9.646;2023-05-07T22:57:41;5.45;;;4.13;;
28724;SDS011;43472;48.980;9.646;2023-05-07T23:02:43;5.60;;;4.35;;
28724;SDS011;43472;48.980;9.646;2023-05-07T23:07:45;8.77;;;4.28;;
28724;SDS011;43472;48.980;9.646;2023-05-07T23:12:47;10.60;;;4.50;;
28724;SDS011;43472;48.980;9.646;2023-05-07T23:17:49;8.18;;;5.70;;
28724;SDS011;43472;48.980;9.646;2023-05-07T23:22:51;11.13;;;8.38;;
28724;SDS011;43472;48.980;9.646;2023-05-07T23:27:53;7.63;;;6.80;;
28724;SDS011;43472;48.980;9.646;2023-05-07T23:32:55;13.55;;;8.50;;
28724;SDS011;43472;48.980;9.646;2023-05-07T23:37:57;9.85;;;8.32;;
28724;SDS011;43472;48.980;9.646;2023-05-07T23:43:14;11.02;;;7.97;;
28724;SDS011;43472;48.980;9.646;2023-05-07T23:48:16;12.85;;;8.55;;
28724;SDS011;43472;48.980;9.646;2023-05-07T23:53:19;10.15;;;8.50;;
28724;SDS011;43472;48.980;9.646;2023-05-07T23:58:36;9.18;;;7.47;;
